• Join FlightAware (Why Join?)
  • Login
  • US Flag GB Flag 
04:04 EST


 

Airport Tracker/Info


-or-


 

Live Flight TrackerFlight Track Log ✈ EJA922 ✈ 20-Jun-2013 ✈ KPHX - KTEB

Flight Track Log - Related Links

Times and Time Zones

All times are in EDT time to prevent confusion due to time zone crossing. See the EJA922 flight status page for this flight to view local times or setup timezone preferences in your user account.

Time Position Orientation Groundspeed Altitude Reporting Facility
EDT Latitude Longitude Course Direction KTS MPH feet Rate Location/Type
19:20 33.4333 -112.0500 292° West 189 217 1,700  Level Phoenix TRACON
19:21 33.4500 -112.1000 292° West 213 245 4,000 1,800 Climbing Phoenix TRACON
19:22 33.5000 -112.1000 360° North 267 307 5,000 1,680 Climbing Phoenix TRACON
19:23 33.5333 -112.0167 64° Northeast 284 327 7,500 1,860 Climbing Phoenix TRACON
19:25 33.5664 -111.8375 77° East 312 359 10,500 1,380 Climbing Albuquerque Center
19:26 33.5925 -111.7178 75° East 373 429 11,600 1,320 Climbing Albuquerque Center
19:27 33.6197 -111.5931 75° East 389 448 13,300 1,680 Climbing Albuquerque Center
19:28 33.6461 -111.4667 76° East 394 453 15,100 1,740 Climbing Albuquerque Center
19:29 33.6797 -111.3092 76° East 407 468 16,900 1,680 Climbing Albuquerque Center
19:30 33.7189 -111.1797 70° East 415 478 18,600 1,440 Climbing Albuquerque Center
19:31 33.7664 -111.0497 66° East 425 489 19,900 1,200 Climbing Albuquerque Center
19:32 33.8128 -110.9164 67° East 432 497 21,100 1,020 Climbing Albuquerque Center
19:33 33.8606 -110.7808 67° East 440 506 22,100 1,080 Climbing Albuquerque Center
19:34 33.9092 -110.6408 67° East 450 518 23,400 1,260 Climbing Albuquerque Center
19:35 33.9586 -110.4992 67° East 457 526 24,700 1,320 Climbing Albuquerque Center
19:36 34.0186 -110.3292 67° East 466 536 26,200 1,320 Climbing Albuquerque Center
19:37 34.0697 -110.1831 67° East 473 544 27,500 1,200 Climbing Albuquerque Center
19:38 34.1208 -110.0372 67° East 473 544 28,700 1,140 Climbing Albuquerque Center
19:39 34.1783 -109.8686 68° East 482 555 29,900 1,140 Climbing Albuquerque Center
19:40 34.2289 -109.7225 67° East 490 564 31,100 1,260 Climbing Albuquerque Center
19:41 34.2786 -109.5764 68° East 492 566 32,500 900 Climbing Albuquerque Center
19:42 34.3375 -109.4036 68° East 494 568 33,000 480 Climbing Albuquerque Center
19:43 34.3900 -109.2458 68° East 512 589 33,500 900 Climbing Albuquerque Center
19:44 34.4486 -109.0594 69° East 526 605 34,900 1,200 Climbing Albuquerque Center
19:45 34.4911 -108.8983 72° East 525 604 36,000 1,200 Climbing Albuquerque Center
19:46 34.5431 -108.7117 71° East 525 604 37,400 1,200 Climbing Albuquerque Center
19:47 34.5867 -108.5522 72° East 524 603 38,500 1,080 Climbing Albuquerque Center
19:48 34.6333 -108.3811 72° East 522 601 39,700 1,200 Climbing Albuquerque Center
19:49 34.6775 -108.2167 72° East 517 595 41,000 600 Climbing Albuquerque Center
19:50 34.7217 -108.0508 72° East 516 594 41,000  Level Albuquerque Center
19:51 34.7667 -107.8814 72° East 524 603 41,000  Level Albuquerque Center
19:52 34.8128 -107.7086 72° East 534 615 41,000  Level Albuquerque Center
19:54 34.8661 -107.5369 69° East 540 621 41,000  Level Albuquerque Center
19:55 34.9211 -107.3667 68° East 541 623 41,000  Level Albuquerque Center
19:56 34.9806 -107.1792 69° East 541 623 41,000  Level Albuquerque Center
19:57 35.0422 -106.9875 68° East 543 625 41,000  Level Albuquerque Center
19:58 35.0928 -106.8239 69° East 540 621 41,000  Level Albuquerque Center
19:59 35.1536 -106.6311 69° East 544 626 41,000  Level Albuquerque Center
20:00 35.2086 -106.4503 70° East 557 641 41,000  Level Albuquerque Center
20:01 35.2619 -106.2778 69° East 549 632 41,000  Level Albuquerque Center
20:02 35.3156 -106.1008 70° East 544 626 41,000  Level Albuquerque Center
20:03 35.3689 -105.9239 70° East 548 631 41,000  Level Albuquerque Center
20:04 35.4261 -105.7461 68° East 554 638 41,000  Level Albuquerque Center
20:05 35.4789 -105.5667 70° East 554 638 41,000  Level Albuquerque Center
20:06 35.5297 -105.3908 70° East 545 627 41,000  Level Albuquerque Center
20:07 35.5808 -105.2122 71° East 546 628 41,000  Level Albuquerque Center
20:08 35.6344 -105.0328 70° East 551 634 41,000  Level Albuquerque Center
20:09 35.6964 -104.8228 70° East 553 636 41,000  Level Albuquerque Center
20:10 35.7494 -104.6436 70° East 551 634 41,000  Level Albuquerque Center
20:11 35.8019 -104.4633 70° East 551 634 41,000  Level Albuquerque Center
20:12 35.8533 -104.2833 71° East 549 632 41,000  Level Albuquerque Center
20:13 35.9050 -104.1033 70° East 550 633 41,000  Level Albuquerque Center
20:14 35.9572 -103.9214 70° East 552 635 41,000  Level Albuquerque Center
20:15 36.0078 -103.7383 71° East 555 639 41,000 300 Level Albuquerque Center
20:16 36.0603 -103.5558 70° East 557 641 41,700 960 Climbing Albuquerque Center
20:17 36.1083 -103.3806 71° East 542 624 43,000 600 Climbing Albuquerque Center
20:18 36.1578 -103.2064 71° East 532 612 43,000  Level Albuquerque Center
20:19 36.2064 -103.0253 72° East 544 626 43,000  Level Albuquerque Center
20:20 36.2583 -102.8344 71° East 553 636 43,000  Level Albuquerque Center
20:21 36.3075 -102.6514 72° East 558 642 43,000  Level Albuquerque Center
20:22 36.3567 -102.4686 71° East 559 643 43,000  Level Albuquerque Center
20:23 36.4058 -102.2833 72° East 562 647 43,000  Level Albuquerque Center
20:24 36.4653 -102.0594 72° East 567 652 43,000  Level Albuquerque Center
20:25 36.5142 -101.8742 72° East 564 649 43,000  Level Albuquerque Center
20:26 36.5611 -101.6886 72° East 563 648 43,000  Level Albuquerque Center
20:27 36.6089 -101.5083 72° East 565 650 43,000  Level Albuquerque Center
20:28 36.6378 -101.3886 73° East 566 651 43,000  Level Kansas City Center
20:29 36.6911 -101.1825 72° East 563 648 43,000  Level Kansas City Center
20:30 36.7353 -101.0069 73° East 560 644 43,000 660 Level Kansas City Center
20:31 36.7878 -100.8047 72° East 553 636 44,400 960 Climbing Kansas City Center
20:32 36.8283 -100.6383 73° East 537 618 45,000 240 Climbing Kansas City Center
20:33 36.8767 -100.4461 72° East 526 605 45,000  Level Kansas City Center
20:34 36.9175 -100.2803 73° East 525 604 45,000  Level Kansas City Center
20:35 36.9658 -100.0864 73° East 525 604 45,000  Level Kansas City Center
20:36 37.0031 -99.9264 74° East 522 601 45,000  Level Kansas City Center
20:37 37.0450 -99.7558 73° East 521 600 45,000  Level Kansas City Center
20:38 37.0911 -99.5631 73° East 522 601 45,000  Level Kansas City Center
20:39 37.1294 -99.4019 73° East 522 601 45,000  Level Kansas City Center
20:40 37.1706 -99.2247 74° East 526 605 45,000  Level Kansas City Center
20:41 37.2144 -99.0325 74° East 527 606 45,000  Level Kansas City Center
20:42 37.2558 -98.8586 73° East 526 605 45,000  Level Kansas City Center
20:44 37.2978 -98.6817 73° East 528 608 45,000  Level Kansas City Center
20:45 37.3450 -98.4656 75° East 535 616 45,000  Level Kansas City Center
20:46 37.3864 -98.2894 73° East 531 611 45,000  Level Kansas City Center
20:47 37.4267 -98.1128 74° East 530 610 45,000  Level Kansas City Center
20:48 37.4664 -97.9353 74° East 531 611 45,000  Level Kansas City Center
20:49 37.5067 -97.7561 74° East 535 616 45,000  Level Kansas City Center
20:50 37.5544 -97.5381 74° East 542 624 45,000  Level Kansas City Center
20:51 37.5936 -97.3581 75° East 538 619 45,000  Level Kansas City Center
20:52 37.6328 -97.1775 75° East 537 618 45,000  Level Kansas City Center
20:53 37.6719 -96.9967 75° East 537 618 45,000  Level Kansas City Center
20:54 37.7097 -96.8161 75° East 535 616 45,000  Level Kansas City Center
20:55 37.7483 -96.6356 75° East 534 615 45,000  Level Kansas City Center
20:56 37.7950 -96.4139 75° East 534 615 45,000  Level Kansas City Center
20:57 37.8317 -96.2372 75° East 535 616 45,000  Level Kansas City Center
20:58 37.8667 -96.0656 75° East 535 616 45,000  Level Kansas City Center
20:59 37.9031 -95.8836 76° East 533 613 45,000  Level Kansas City Center
21:00 37.9472 -95.6692 75° East 542 624 45,000  Level Kansas City Center
21:01 37.9822 -95.4911 76° East 544 626 45,000  Level Kansas City Center
21:02 38.0236 -95.2861 76° East 539 620 45,000  Level Kansas City Center
21:03 38.0575 -95.1100 76° East 540 621 45,000  Level Kansas City Center
21:04 38.0975 -94.9064 76° East 537 618 45,000  Level Kansas City Center
21:05 38.1328 -94.7261 76° East 543 625 45,000  Level Kansas City Center
21:06 38.1658 -94.5469 77° East 546 628 45,000  Level Kansas City Center
21:07 38.2056 -94.3389 76° East 545 627 45,000  Level Kansas City Center
21:08 38.2406 -94.1594 76° East 546 628 45,000  Level Kansas City Center
21:09 38.2764 -93.9589 77° East 545 627 45,000  Level Kansas City Center
21:10 38.3106 -93.7714 77° East 544 626 45,000  Level Kansas City Center
21:11 38.3433 -93.5839 77° East 542 624 45,000  Level Kansas City Center
21:12 38.3769 -93.3964 77° East 541 623 45,000  Level Kansas City Center
21:13 38.4108 -93.2089 77° East 540 621 45,000  Level Kansas City Center
21:14 38.4525 -92.9819 77° East 543 625 45,000  Level Kansas City Center
21:15 38.4856 -92.7925 77° East 543 625 45,000  Level Kansas City Center
21:16 38.5172 -92.6047 78° East 539 620 45,000  Level Kansas City Center
21:17 38.5497 -92.4156 78° East 539 620 45,000  Level Kansas City Center
21:19 38.5811 -92.2242 78° East 542 624 45,000  Level Kansas City Center
21:20 38.6133 -92.0372 78° East 540 621 45,000  Level Kansas City Center
21:21 38.6450 -91.8486 78° East 538 619 45,000  Level Kansas City Center
21:22 38.6753 -91.6600 78° East 539 620 45,000  Level Kansas City Center
21:23 38.7039 -91.4739 79° East 544 626 45,000  Level Kansas City Center
21:24 38.7328 -91.2869 79° East 539 620 45,000  Level Kansas City Center
21:25 38.7697 -91.0628 78° East 537 618 45,000  Level Kansas City Center
21:26 38.7994 -90.8764 78° East 536 617 45,000  Level Kansas City Center
21:27 38.8297 -90.6881 78° East 535 616 45,000  Level Kansas City Center
21:28 38.8611 -90.4947 78° East 534 615 45,000  Level Kansas City Center
21:29 38.8978 -90.3103 76° East 534 615 45,000  Level Kansas City Center
21:30 38.9508 -90.1281 69° East 545 627 45,000  Level Kansas City Center
21:31 38.9958 -89.9458 72° East 542 624 45,000  Level Kansas City Center
21:32 39.0394 -89.7658 73° East 531 611 45,000  Level Kansas City Center
21:33 39.0828 -89.5867 73° East 526 605 45,000  Level Kansas City Center
21:34 39.1264 -89.4067 73° East 527 606 45,000  Level Kansas City Center
21:35 39.1778 -89.1914 73° East 526 605 45,000  Level Kansas City Center
21:36 39.2214 -89.0122 73° East 525 604 45,000  Level Kansas City Center
21:37 39.2644 -88.8350 73° East 522 601 45,000  Level Kansas City Center
21:38 39.3067 -88.6558 73° East 523 602 45,000  Level Kansas City Center
21:39 39.3536 -88.4586 73° East 524 603 45,000  Level Kansas City Center
21:40 39.3933 -88.2781 74° East 522 601 45,000  Level Kansas City Center
21:41 39.4342 -88.0975 74° East 524 603 45,000  Level Indianapolis Center
21:42 39.4750 -87.9172 74° East 521 600 45,000  Level Indianapolis Center
21:43 39.5144 -87.7372 74° East 522 601 45,000  Level Indianapolis Center
21:44 39.5564 -87.5578 73° East 522 601 45,000  Level Indianapolis Center
21:45 39.6036 -87.3419 74° East 518 596 45,000  Level Indianapolis Center
21:46 39.6431 -87.1633 74° East 517 595 45,000  Level Indianapolis Center
21:47 39.6831 -86.9850 74° East 515 593 45,000  Level Indianapolis Center
21:48 39.7211 -86.8072 74° East 513 590 45,000  Level Indianapolis Center
21:49 39.7597 -86.6267 74° East 516 594 45,000  Level Indianapolis Center
21:50 39.7989 -86.4467 74° East 514 592 45,000  Level Indianapolis Center
21:51 39.8508 -86.2614 70° East 519 597 45,000  Level Indianapolis Center
21:52 39.9175 -86.0919 63° Northeast 520 598 45,000  Level Indianapolis Center
21:53 39.9792 -85.9239 64° Northeast 516 594 45,000  Level Indianapolis Center
21:55 40.0406 -85.7542 65° Northeast 516 594 45,000  Level Indianapolis Center
21:56 40.1019 -85.5850 65° Northeast 516 594 45,000  Level Indianapolis Center
21:57 40.1753 -85.3803 65° Northeast 519 597 45,000  Level Indianapolis Center
21:58 40.2367 -85.2092 65° Northeast 520 598 45,000  Level Indianapolis Center
21:59 40.2986 -85.0381 65° Northeast 521 600 45,000  Level Indianapolis Center
22:00 40.3639 -84.8511 65° Northeast 524 603 45,000  Level Indianapolis Center
22:01 40.4247 -84.6769 65° Northeast 522 601 45,000  Level Indianapolis Center
22:02 40.4861 -84.5019 65° Northeast 521 600 45,000  Level Indianapolis Center
22:03 40.5464 -84.3267 66° East 519 597 45,000  Level Indianapolis Center
22:04 40.6081 -84.1500 65° Northeast 524 603 45,000  Level Indianapolis Center
22:05 40.6689 -83.9744 65° Northeast 522 601 45,000  Level Indianapolis Center
22:06 40.7286 -83.7953 66° East 527 606 45,000  Level Indianapolis Center
22:07 40.7894 -83.6186 65° Northeast 524 603 45,000  Level Indianapolis Center
22:08 40.8539 -83.4256 66° East 529 609 45,000  Level Indianapolis Center
22:09 40.9000 -83.2919 65° Northeast 519 597 45,000  Level Cleveland Center
22:10 40.9608 -83.0992 67° East 520 598 45,000  Level Cleveland Center
22:11 41.0208 -82.9169 66° East 520 598 45,000  Level Cleveland Center
22:12 41.0808 -82.7400 66° East 525 604 45,000  Level Cleveland Center
22:13 41.1317 -82.5792 67° East 525 604 45,000  Level Cleveland Center
22:14 41.1908 -82.3986 66° East 531 611 45,000  Level Cleveland Center
22:15 41.2500 -82.2181 66° East 531 611 45,000  Level Cleveland Center
22:16 41.3153 -82.0153 67° East 531 611 45,000  Level Cleveland Center
22:17 41.3717 -81.8311 68° East 536 617 45,000  Level Cleveland Center
22:18 41.4006 -81.6350 79° East 530 610 45,000  Level Cleveland Center
22:19 41.4294 -81.4361 79° East 538 619 45,000  Level Cleveland Center
22:20 41.4536 -81.2425 80° East 538 619 45,000  Level Cleveland Center
22:21 41.4775 -81.0625 80° East 538 619 45,000  Level Cleveland Center
22:22 41.5053 -80.8658 79° East 546 628 45,000  Level Cleveland Center
22:23 41.5306 -80.6719 80° East 538 619 45,000  Level Cleveland Center
22:24 41.5556 -80.4722 80° East 543 625 45,000  Level Cleveland Center
22:25 41.5822 -80.2778 80° East 543 625 45,000  Level Cleveland Center
22:26 41.6086 -80.0778 80° East 543 625 45,000  Level Cleveland Center
22:27 41.6328 -79.8831 81° East 537 618 45,000  Level Cleveland Center
22:28 41.6603 -79.6606 81° East 542 624 45,000  Level Cleveland Center
22:29 41.6814 -79.4628 82° East 542 624 45,000 -360 Level Cleveland Center
22:30 41.6875 -79.2597 88° East 542 624 44,300 -1,140 Descending Cleveland Center
22:31 41.6914 -79.0539 88° East 537 618 42,800 -1,560 Descending Cleveland Center
22:32 41.6908 -78.8647 90° East 531 611 41,200 -1,560 Descending Cleveland Center
22:33 41.6897 -78.6672 90° East 520 598 39,700 -1,560 Descending Cleveland Center
22:34 41.6883 -78.4728 90° East 520 598 38,100 -1,560 Descending Cleveland Center
22:35 41.6886 -78.2753 90° East 520 598 36,600 -1,080 Descending Cleveland Center
22:36 41.6867 -78.0750 91° East 525 604 36,000 -300 Descending Cleveland Center
22:37 41.6861 -77.8042 90° East 555 639 36,000  Level New York Center
22:38 41.6856 -77.5956 90° East 555 639 36,000  Level New York Center
22:39 41.6806 -77.3922 92° East 555 639 36,000 -240 Level New York Center
22:40 41.6756 -77.1808 92° East 555 639 35,600 -960 Descending New York Center
22:41 41.6336 -76.9853 106° East 547 629 34,100 -1,560 Descending New York Center
22:42 41.5811 -76.7917 110° East 553 636 32,600 -1,560 Descending New York Center
22:43 41.5231 -76.5814 110° East 553 636 31,000 -1,620 Descending New York Center
22:44 41.4700 -76.3858 110° East 553 636 29,400 -1,980 Descending New York Center
22:45 41.4236 -76.2158 110° East 553 636 27,100 -2,700 Descending New York Center
22:46 41.3714 -76.0375 111° Southeast 536 617 24,000 -3,120 Descending New York Center
22:47 41.3203 -75.8706 112° Southeast 508 585 21,000 -2,940 Descending New York Center
22:48 41.2733 -75.6986 110° East 495 570 18,300 -1,680 Descending New York Center
22:49 41.2236 -75.5431 113° Southeast 474 545 17,700 -1,980 Descending New York Center
22:50 41.1733 -75.3908 114° Southeast 451 519 14,400 -3,240 Descending New York Center
22:51 41.1247 -75.2442 114° Southeast 421 484 11,200 -2,640 Descending New York Center
22:52 41.0872 -75.1344 114° Southeast 358 412 9,100 -2,040 Descending New York Center
22:53 41.0592 -75.0500 114° Southeast 295 339 7,200 -1,620 Descending New York Center
22:54 41.0211 -74.9458 116° Southeast 288 331 6,000 -1,020 Descending New York Center
22:55 41.0019 -74.8431 104° East 288 331 5,200 -900 Descending New York Center
22:56 40.9925 -74.7517 98° East 282 325 4,200 -1,020 Descending New York Center
22:57 40.9836 -74.6439 96° East 276 318 3,200 -720 Descending New York Center
22:58 40.9833 -74.5667 90° East 274 315 3,000 -120 Descending New York TRACON
22:59 40.9667 -74.4500 101° East 275 316 3,000 -120 Level New York TRACON
23:00 40.9667 -74.3667 90° East 262 302 2,800 -540 Descending New York TRACON
23:01 40.9500 -74.2833 105° East 232 267 2,000 -420 Descending New York TRACON
23:02 40.9500 -74.2000 90° East 222 255 2,000  Level New York TRACON
23:03 40.9333 -74.1167 105° East 213 245 2,000 -180 Level New York TRACON
23:04 40.9333 -74.0500 90° East 184 212 1,700 -600 Descending New York TRACON
23:05 40.9000 -74.0500 180° South 116 133 800 5,040 Descending New York TRACON
23:07 40.8261 -74.0647 189° South 112 129 18,000 7,680 Climbing New York Center
23:09 40.8500 -74.0500 North  Level FlightAware Approximate